createdAt,value
2018-07-07T00:00:38.461Z,16.20
2018-07-07T00:01:42.512Z,16.20
2018-07-07T00:02:46.548Z,16.20
2018-07-07T00:03:50.583Z,16.20
2018-07-07T00:04:54.669Z,16.20
2018-07-07T00:05:58.710Z,16.20
2018-07-07T00:07:02.770Z,16.30
2018-07-07T00:08:06.977Z,16.20
2018-07-07T00:09:11.182Z,16.10
2018-07-07T00:10:15.858Z,16.20
2018-07-07T00:11:20.066Z,16.20
2018-07-07T00:12:24.080Z,16.10
2018-07-07T00:13:28.243Z,16.20
2018-07-07T00:14:32.423Z,16.20
2018-07-07T00:15:36.641Z,16.20
2018-07-07T00:16:40.688Z,16.20
2018-07-07T00:17:45.342Z,16.10
2018-07-07T00:18:49.410Z,16.10
2018-07-07T00:19:53.549Z,16.10
2018-07-07T00:20:57.658Z,16.10
2018-07-07T00:22:01.717Z,16.10
2018-07-07T00:23:05.764Z,16.10
2018-07-07T00:24:09.939Z,16.10
2018-07-07T00:25:15.475Z,16.10
2018-07-07T00:26:19.505Z,16.10
2018-07-07T00:27:23.668Z,16.10
2018-07-07T00:28:27.676Z,16.00
2018-07-07T00:29:31.817Z,16.00
2018-07-07T00:30:35.879Z,16.00
2018-07-07T00:31:39.987Z,16.00
2018-07-07T00:32:44.036Z,16.00
2018-07-07T00:33:48.249Z,16.00
2018-07-07T00:35:56.045Z,16.00
2018-07-07T00:37:00.215Z,16.00
2018-07-07T00:38:04.256Z,16.00
2018-07-07T00:39:08.329Z,16.00
2018-07-07T00:40:12.594Z,16.00
2018-07-07T00:41:16.626Z,16.00
2018-07-07T00:42:20.632Z,16.00
2018-07-07T00:43:24.821Z,16.00
2018-07-07T00:44:28.860Z,16.00
2018-07-07T00:45:32.990Z,16.00
2018-07-07T00:46:37.058Z,16.00
2018-07-07T00:47:41.258Z,15.90
2018-07-07T00:48:45.313Z,15.90
2018-07-07T00:49:49.537Z,15.90
2018-07-07T00:50:53.575Z,15.90
2018-07-07T00:51:57.728Z,15.90
2018-07-07T00:53:01.764Z,16.00
2018-07-07T00:54:06.088Z,16.00
2018-07-07T00:55:10.170Z,16.00
2018-07-07T00:56:14.192Z,15.90
2018-07-07T00:57:18.240Z,15.90
2018-07-07T00:58:22.352Z,15.90
2018-07-07T00:59:26.418Z,15.90
2018-07-07T01:00:41.859Z,15.80
2018-07-07T01:01:46.076Z,15.90
2018-07-07T01:02:50.251Z,15.90
2018-07-07T01:03:54.324Z,15.80
2018-07-07T01:04:58.392Z,15.80
2018-07-07T01:06:02.541Z,15.80
2018-07-07T01:07:06.702Z,15.80
2018-07-07T01:08:10.988Z,15.80
2018-07-07T01:09:15.459Z,15.80
2018-07-07T01:10:19.518Z,15.80
2018-07-07T01:11:23.659Z,15.70
2018-07-07T01:12:27.706Z,15.70
2018-07-07T01:13:31.903Z,15.70
2018-07-07T01:14:35.929Z,15.70
2018-07-07T01:15:40.391Z,15.70
2018-07-07T01:16:44.457Z,15.60
2018-07-07T01:17:48.570Z,15.60
2018-07-07T01:18:52.629Z,15.70
2018-07-07T01:19:56.889Z,15.60
2018-07-07T01:21:00.999Z,15.60
2018-07-07T01:22:07.159Z,15.60
2018-07-07T01:23:11.313Z,15.60
2018-07-07T01:24:15.464Z,15.60
2018-07-07T01:25:19.590Z,15.60
2018-07-07T01:26:23.637Z,15.60
2018-07-07T01:27:27.715Z,15.60
2018-07-07T01:28:31.748Z,15.60
2018-07-07T01:29:35.824Z,15.60
2018-07-07T01:30:39.856Z,15.60
2018-07-07T01:31:43.899Z,15.60
2018-07-07T01:32:47.966Z,15.50
2018-07-07T01:33:51.999Z,15.50
2018-07-07T01:35:59.852Z,15.50
2018-07-07T01:37:03.965Z,15.50
2018-07-07T01:38:07.989Z,15.40
2018-07-07T01:39:12.129Z,15.50
2018-07-07T01:40:16.210Z,15.50
2018-07-07T01:41:20.300Z,15.40
2018-07-07T01:43:28.211Z,15.40
2018-07-07T01:44:32.340Z,15.40
2018-07-07T01:45:36.445Z,15.40
2018-07-07T01:46:40.568Z,15.40
2018-07-07T01:47:44.675Z,15.40
2018-07-07T01:48:48.886Z,15.40
2018-07-07T01:49:53.043Z,15.40
2018-07-07T01:50:57.218Z,15.50
2018-07-07T01:53:05.085Z,15.50
2018-07-07T01:54:09.269Z,15.50
2018-07-07T01:55:13.595Z,15.40
2018-07-07T01:56:17.616Z,15.40
2018-07-07T01:57:21.758Z,15.40
2018-07-07T01:58:25.827Z,15.40
2018-07-07T01:59:29.923Z,15.40
2018-07-07T02:00:34.058Z,15.40
2018-07-07T02:01:38.010Z,15.50
2018-07-07T02:02:42.170Z,15.40
2018-07-07T02:03:46.329Z,15.40
2018-07-07T02:04:50.470Z,15.40
2018-07-07T02:06:58.292Z,15.40
2018-07-07T02:08:02.404Z,15.40
2018-07-07T02:09:09.549Z,15.30
2018-07-07T02:10:13.629Z,15.30
2018-07-07T02:11:17.633Z,15.30
2018-07-07T02:12:21.698Z,15.30
2018-07-07T02:13:25.850Z,15.30
2018-07-07T02:14:29.958Z,15.30
2018-07-07T02:15:34.038Z,15.30
2018-07-07T02:16:38.075Z,15.30
2018-07-07T02:17:42.348Z,15.30
2018-07-07T02:18:46.474Z,15.40
2018-07-07T02:19:50.470Z,15.30
2018-07-07T02:20:54.475Z,15.30
2018-07-07T02:21:58.582Z,15.30
2018-07-07T02:23:02.659Z,15.30
2018-07-07T02:24:06.854Z,15.30
2018-07-07T02:25:11.004Z,15.30
2018-07-07T02:26:15.029Z,15.30
2018-07-07T02:27:19.243Z,15.30
2018-07-07T02:28:23.288Z,15.30
2018-07-07T02:29:27.407Z,15.30
2018-07-07T02:30:31.494Z,15.30
2018-07-07T02:31:35.541Z,15.20
2018-07-07T02:32:39.565Z,15.30
2018-07-07T02:33:43.607Z,15.30
2018-07-07T02:34:47.700Z,15.20
2018-07-07T02:35:51.835Z,15.20
2018-07-07T02:36:55.875Z,15.30
2018-07-07T02:38:00.016Z,15.30
2018-07-07T02:39:05.035Z,15.20
2018-07-07T02:40:09.056Z,15.20
2018-07-07T02:41:13.154Z,15.20
2018-07-07T02:42:17.205Z,15.10
2018-07-07T02:43:21.302Z,15.10
2018-07-07T02:44:25.380Z,15.20
2018-07-07T02:45:29.547Z,15.20
2018-07-07T02:46:33.646Z,15.20
2018-07-07T02:47:37.755Z,15.20
2018-07-07T02:48:41.901Z,15.20
2018-07-07T02:49:45.923Z,15.20
2018-07-07T02:50:50.014Z,15.20
2018-07-07T02:51:54.084Z,15.20
2018-07-07T02:54:01.807Z,15.20
2018-07-07T02:55:05.894Z,15.10
2018-07-07T02:56:10.015Z,15.10
2018-07-07T02:57:14.172Z,15.10
2018-07-07T02:58:18.355Z,15.10
2018-07-07T02:59:22.554Z,15.10
2018-07-07T03:00:26.562Z,15.10
2018-07-07T03:01:30.606Z,15.20
2018-07-07T03:02:34.709Z,15.20
2018-07-07T03:03:38.695Z,15.20
2018-07-07T03:04:42.707Z,15.20
2018-07-07T03:05:46.774Z,15.20
2018-07-07T03:06:51.001Z,15.20
2018-07-07T03:07:55.171Z,15.20
2018-07-07T03:08:59.203Z,15.20
2018-07-07T03:10:03.420Z,15.20
2018-07-07T03:11:07.466Z,15.20
2018-07-07T03:12:11.546Z,15.10
2018-07-07T03:14:19.273Z,15.10
2018-07-07T03:15:23.714Z,15.10
2018-07-07T03:17:31.682Z,15.20
2018-07-07T03:18:35.733Z,15.20
2018-07-07T03:19:39.904Z,15.20
2018-07-07T03:20:43.918Z,15.20
2018-07-07T03:21:47.938Z,15.20
2018-07-07T03:22:52.232Z,15.20
2018-07-07T03:23:56.353Z,15.20
2018-07-07T03:25:00.415Z,15.20
2018-07-07T03:26:04.448Z,15.20
2018-07-07T03:27:08.524Z,15.10
2018-07-07T03:28:12.604Z,15.10
2018-07-07T03:29:16.815Z,15.10
2018-07-07T03:30:20.987Z,15.10
2018-07-07T03:31:25.116Z,15.10
2018-07-07T03:32:29.125Z,15.10
2018-07-07T03:33:33.165Z,15.10
2018-07-07T03:35:40.946Z,15.20
2018-07-07T03:36:45.176Z,15.10
2018-07-07T03:37:49.297Z,15.10
2018-07-07T03:38:53.385Z,15.10
2018-07-07T03:39:57.455Z,15.10
2018-07-07T03:41:01.544Z,15.10
2018-07-07T03:42:05.591Z,15.10
2018-07-07T03:43:09.686Z,15.20
2018-07-07T03:44:13.672Z,15.20
2018-07-07T03:45:17.771Z,15.20
2018-07-07T03:46:21.948Z,15.10
2018-07-07T03:47:26.164Z,15.20
2018-07-07T03:48:30.350Z,15.20
2018-07-07T03:49:34.415Z,15.10
2018-07-07T03:50:38.502Z,15.20
2018-07-07T03:51:42.626Z,15.20
2018-07-07T03:52:46.798Z,15.20
2018-07-07T03:53:50.970Z,15.10
2018-07-07T03:54:55.111Z,15.10
2018-07-07T03:55:59.251Z,15.10
2018-07-07T03:57:04.453Z,15.20
2018-07-07T03:58:08.690Z,15.20
2018-07-07T03:59:12.860Z,15.20
2018-07-07T04:00:16.968Z,15.20
2018-07-07T04:01:21.061Z,15.10
2018-07-07T04:02:25.235Z,15.10
2018-07-07T04:03:29.383Z,15.10
2018-07-07T04:04:33.572Z,15.10
2018-07-07T04:05:37.721Z,15.20
2018-07-07T04:06:41.961Z,15.20
2018-07-07T04:07:46.018Z,15.20
2018-07-07T04:08:50.097Z,15.10
2018-07-07T04:09:54.168Z,15.20
2018-07-07T04:10:58.218Z,15.20
2018-07-07T04:12:02.292Z,15.20
2018-07-07T04:13:06.898Z,15.20
2018-07-07T04:14:11.105Z,15.20
2018-07-07T04:15:15.242Z,15.30
2018-07-07T04:16:19.243Z,15.20
2018-07-07T04:17:23.270Z,15.20
2018-07-07T04:18:35.446Z,15.20
2018-07-07T04:19:39.493Z,15.20
2018-07-07T04:20:43.621Z,15.20
2018-07-07T04:21:47.658Z,15.20
2018-07-07T04:22:52.144Z,15.30
2018-07-07T04:23:56.234Z,15.30
2018-07-07T04:25:00.400Z,15.30
2018-07-07T04:26:04.577Z,15.30
2018-07-07T04:27:08.667Z,15.20
2018-07-07T04:28:12.716Z,15.30
2018-07-07T04:29:16.833Z,15.30
2018-07-07T04:30:21.064Z,15.30
2018-07-07T04:31:25.087Z,15.20
2018-07-07T04:32:29.181Z,15.30
2018-07-07T04:33:33.468Z,15.30
2018-07-07T04:34:37.549Z,15.30
2018-07-07T04:35:41.755Z,15.30
2018-07-07T04:36:45.793Z,15.40
2018-07-07T04:37:49.822Z,15.40
2018-07-07T04:38:53.944Z,15.40
2018-07-07T04:39:58.060Z,15.40
2018-07-07T04:41:02.147Z,15.40
2018-07-07T04:42:06.255Z,15.40
2018-07-07T04:43:10.333Z,15.40
2018-07-07T04:44:14.368Z,15.40
2018-07-07T04:45:18.387Z,15.40
2018-07-07T04:46:22.423Z,15.40
2018-07-07T04:47:26.451Z,15.40
2018-07-07T04:48:30.523Z,15.50
2018-07-07T04:49:34.608Z,15.40
2018-07-07T04:50:38.691Z,15.50
2018-07-07T04:51:42.851Z,15.50
2018-07-07T04:52:46.963Z,15.50
2018-07-07T04:53:51.012Z,15.50
2018-07-07T04:54:55.111Z,15.50
2018-07-07T04:55:59.184Z,15.50
2018-07-07T04:57:03.294Z,15.50
2018-07-07T04:58:07.376Z,15.50
2018-07-07T04:59:11.496Z,15.60
2018-07-07T05:00:15.587Z,15.60
2018-07-07T05:01:19.717Z,15.70
2018-07-07T05:02:23.802Z,15.70
2018-07-07T05:03:27.916Z,15.70
2018-07-07T05:04:32.221Z,15.70
2018-07-07T05:05:36.258Z,15.70
2018-07-07T05:06:40.399Z,15.70
2018-07-07T05:07:44.660Z,15.70
2018-07-07T05:08:48.797Z,15.70
2018-07-07T05:09:52.980Z,15.70
2018-07-07T05:10:57.003Z,15.70
2018-07-07T05:12:01.301Z,15.70
2018-07-07T05:13:05.395Z,15.80
2018-07-07T05:14:09.448Z,15.80
2018-07-07T05:15:13.572Z,15.90
2018-07-07T05:16:17.791Z,15.90
2018-07-07T05:17:24.900Z,15.90
2018-07-07T05:18:29.168Z,15.90
2018-07-07T05:19:33.241Z,16.00
2018-07-07T05:20:37.318Z,16.00
2018-07-07T05:21:41.474Z,16.10
2018-07-07T05:22:45.587Z,16.00
2018-07-07T05:23:49.729Z,16.00
2018-07-07T05:24:53.970Z,15.90
2018-07-07T05:25:58.126Z,15.90
2018-07-07T05:27:02.274Z,15.90
2018-07-07T05:28:06.395Z,15.90
2018-07-07T05:29:10.469Z,15.90
2018-07-07T05:30:14.564Z,16.00
2018-07-07T05:31:18.626Z,16.00
2018-07-07T05:32:22.856Z,16.00
2018-07-07T05:33:26.862Z,16.10
2018-07-07T05:35:34.625Z,16.00
2018-07-07T05:36:38.734Z,16.00
2018-07-07T05:37:42.842Z,16.10
2018-07-07T05:38:46.915Z,16.00
2018-07-07T05:39:51.024Z,16.10
2018-07-07T05:40:55.138Z,16.20
2018-07-07T05:41:59.166Z,16.20
2018-07-07T05:43:03.348Z,16.20
2018-07-07T05:44:07.475Z,16.20
2018-07-07T05:45:11.686Z,16.20
2018-07-07T05:46:15.810Z,16.30
2018-07-07T05:47:19.896Z,16.40
2018-07-07T05:48:23.989Z,16.40
2018-07-07T05:49:28.023Z,16.40
2018-07-07T05:50:32.075Z,16.40
2018-07-07T05:51:36.168Z,16.40
2018-07-07T05:52:40.371Z,16.50
2018-07-07T05:53:44.402Z,16.60
2018-07-07T05:54:48.417Z,16.60
2018-07-07T05:55:52.556Z,16.50
2018-07-07T05:56:56.690Z,16.50
2018-07-07T05:58:00.782Z,16.40
2018-07-07T05:59:05.089Z,16.40
2018-07-07T06:00:09.335Z,16.40
2018-07-07T06:01:13.717Z,16.50
2018-07-07T06:02:17.792Z,16.50
2018-07-07T06:03:21.893Z,16.40
2018-07-07T06:04:25.907Z,16.50
2018-07-07T06:05:29.983Z,16.40
2018-07-07T06:06:34.062Z,16.40
2018-07-07T06:07:38.266Z,16.40
2018-07-07T06:08:42.304Z,16.40
2018-07-07T06:09:46.395Z,16.40
2018-07-07T06:10:50.491Z,16.50
2018-07-07T06:11:54.602Z,16.50
2018-07-07T06:12:58.727Z,16.50
2018-07-07T06:14:02.728Z,16.50
2018-07-07T06:15:07.553Z,16.50
2018-07-07T06:16:11.731Z,16.50
2018-07-07T06:18:19.613Z,16.50
2018-07-07T06:19:23.622Z,16.50
2018-07-07T06:20:27.725Z,16.60
2018-07-07T06:21:31.788Z,16.60
2018-07-07T06:22:35.999Z,16.60
2018-07-07T06:23:40.083Z,16.60
2018-07-07T06:24:44.150Z,16.70
2018-07-07T06:25:48.203Z,16.80
2018-07-07T06:26:52.622Z,16.80
2018-07-07T06:27:56.683Z,16.80
2018-07-07T06:29:00.840Z,16.80
2018-07-07T06:30:05.276Z,16.80
2018-07-07T06:31:09.361Z,16.80
2018-07-07T06:32:13.383Z,16.80
2018-07-07T06:33:17.481Z,16.80
2018-07-07T06:34:21.519Z,16.80
2018-07-07T06:35:25.748Z,16.90
2018-07-07T06:36:29.862Z,16.80
2018-07-07T06:37:33.895Z,16.80
2018-07-07T06:38:37.954Z,16.80
2018-07-07T06:39:42.003Z,16.80
2018-07-07T06:40:46.104Z,16.80
2018-07-07T06:41:50.199Z,16.80
2018-07-07T06:42:54.213Z,16.70
2018-07-07T06:43:58.271Z,16.80
2018-07-07T06:45:02.527Z,16.80
2018-07-07T06:46:06.802Z,16.90
2018-07-07T06:47:10.980Z,16.90
2018-07-07T06:48:14.967Z,16.90
2018-07-07T06:49:19.042Z,17.00
2018-07-07T06:50:23.146Z,17.00
2018-07-07T06:51:27.224Z,17.10
2018-07-07T06:52:31.300Z,17.10
2018-07-07T06:53:35.477Z,17.20
2018-07-07T06:54:39.481Z,17.20
2018-07-07T06:55:43.622Z,17.10
2018-07-07T06:56:47.703Z,17.10
2018-07-07T06:57:51.764Z,17.10
2018-07-07T06:58:55.900Z,17.10
2018-07-07T07:00:00.063Z,17.20
2018-07-07T07:01:04.121Z,17.30
2018-07-07T07:02:08.200Z,17.20
2018-07-07T07:03:12.325Z,17.20
2018-07-07T07:04:16.691Z,17.20
2018-07-07T07:05:20.746Z,17.30
2018-07-07T07:06:24.853Z,17.30
2018-07-07T07:07:28.853Z,17.40
2018-07-07T07:08:32.889Z,17.40
2018-07-07T07:09:36.916Z,17.40
2018-07-07T07:10:40.984Z,17.50
2018-07-07T07:11:45.046Z,17.50
2018-07-07T07:12:49.230Z,17.50
2018-07-07T07:13:54.040Z,17.60
2018-07-07T07:14:58.127Z,17.70
2018-07-07T07:16:02.226Z,17.60
2018-07-07T07:17:06.314Z,17.60
2018-07-07T07:18:10.439Z,17.60
2018-07-07T07:19:14.491Z,17.50
2018-07-07T07:20:18.640Z,17.40
2018-07-07T07:21:22.840Z,17.40
2018-07-07T07:22:26.913Z,17.40
2018-07-07T07:23:31.017Z,17.50
2018-07-07T07:24:35.066Z,17.60
2018-07-07T07:25:39.098Z,17.70
2018-07-07T07:26:43.211Z,17.70
2018-07-07T07:27:47.256Z,17.70
2018-07-07T07:28:51.318Z,17.60
2018-07-07T07:29:55.319Z,17.70
2018-07-07T07:30:59.570Z,17.70
2018-07-07T07:32:03.758Z,17.80
2018-07-07T07:33:07.970Z,17.90
2018-07-07T07:34:11.915Z,17.90
2018-07-07T07:35:15.955Z,18.00
2018-07-07T07:36:37.021Z,18.00
2018-07-07T07:37:41.086Z,17.90
2018-07-07T07:38:45.168Z,17.90
2018-07-07T07:39:49.201Z,18.00
2018-07-07T07:40:53.284Z,18.10
2018-07-07T07:41:57.364Z,18.10
2018-07-07T07:43:01.438Z,18.20
2018-07-07T07:44:05.523Z,18.30
2018-07-07T07:45:09.787Z,18.30
2018-07-07T07:46:13.843Z,18.30
2018-07-07T07:47:17.914Z,18.20
2018-07-07T07:48:21.961Z,18.20
2018-07-07T07:49:26.016Z,18.20
2018-07-07T07:50:30.063Z,18.30
2018-07-07T07:51:34.077Z,18.20
2018-07-07T07:52:38.312Z,18.10
2018-07-07T07:53:42.360Z,18.10
2018-07-07T07:54:46.695Z,18.00
2018-07-07T07:55:50.797Z,18.00
2018-07-07T07:56:54.909Z,18.00
2018-07-07T07:57:58.940Z,18.00
2018-07-07T07:59:09.611Z,18.00
2018-07-07T08:00:13.870Z,18.00
2018-07-07T08:01:17.999Z,17.90
2018-07-07T08:02:22.066Z,17.90
2018-07-07T08:03:26.148Z,18.00
2018-07-07T08:04:30.249Z,18.00
2018-07-07T08:05:34.337Z,18.10
2018-07-07T08:06:38.391Z,18.10
2018-07-07T08:07:42.403Z,18.10
2018-07-07T08:08:46.474Z,18.20
2018-07-07T08:09:50.570Z,18.30
2018-07-07T08:10:54.635Z,18.20
2018-07-07T08:11:58.733Z,18.20
2018-07-07T08:14:06.516Z,18.20
2018-07-07T08:15:10.686Z,18.20
2018-07-07T08:16:14.814Z,18.20
2018-07-07T08:17:18.869Z,18.20
2018-07-07T08:18:22.920Z,18.20
2018-07-07T08:19:27.457Z,18.20
2018-07-07T08:20:31.561Z,18.30
2018-07-07T08:21:35.647Z,18.30
2018-07-07T08:22:39.803Z,18.30
2018-07-07T08:23:43.805Z,18.30
2018-07-07T08:24:47.848Z,18.40
2018-07-07T08:25:52.004Z,18.40
2018-07-07T08:26:56.144Z,18.40
2018-07-07T08:28:00.278Z,18.40
2018-07-07T08:29:04.411Z,18.50
2018-07-07T08:30:08.539Z,18.50
2018-07-07T08:31:12.630Z,18.60
2018-07-07T08:32:16.716Z,18.70
2018-07-07T08:33:20.722Z,18.70
2018-07-07T08:34:24.735Z,18.70
2018-07-07T08:35:28.847Z,18.60
2018-07-07T08:36:32.952Z,18.70
2018-07-07T08:37:36.870Z,18.80
2018-07-07T08:38:40.995Z,18.80
2018-07-07T08:39:44.998Z,18.70
2018-07-07T08:40:49.042Z,18.70
2018-07-07T08:41:53.480Z,18.80
2018-07-07T08:42:57.506Z,18.80
2018-07-07T08:44:01.520Z,18.70
2018-07-07T08:45:05.672Z,18.70
2018-07-07T08:46:09.730Z,18.70
2018-07-07T08:47:13.999Z,18.80
2018-07-07T08:48:18.070Z,18.90
2018-07-07T08:49:22.082Z,19.00
2018-07-07T08:50:26.127Z,19.00
2018-07-07T08:51:30.146Z,19.10
2018-07-07T08:52:34.151Z,19.10
2018-07-07T08:53:38.334Z,19.00
2018-07-07T08:54:42.372Z,19.10
2018-07-07T08:55:46.559Z,19.10
2018-07-07T08:56:50.607Z,19.20
2018-07-07T08:57:54.762Z,19.10
2018-07-07T08:58:58.758Z,19.20
2018-07-07T09:00:02.863Z,19.20
2018-07-07T09:01:06.888Z,19.30
2018-07-07T09:02:10.975Z,19.30
2018-07-07T09:03:15.122Z,19.30
2018-07-07T09:04:19.193Z,19.20
2018-07-07T09:05:23.259Z,19.20
2018-07-07T09:06:27.343Z,19.30
2018-07-07T09:07:31.335Z,19.40
2018-07-07T09:08:35.426Z,19.40
2018-07-07T09:09:39.588Z,19.40
2018-07-07T09:10:43.651Z,19.40
2018-07-07T09:11:47.673Z,19.40
2018-07-07T09:12:51.748Z,19.40
2018-07-07T09:13:55.755Z,19.40
2018-07-07T09:14:59.793Z,19.50
2018-07-07T09:17:07.714Z,19.50
2018-07-07T09:18:11.932Z,19.50
2018-07-07T09:19:16.161Z,19.70
2018-07-07T09:20:20.329Z,19.60
2018-07-07T09:21:24.538Z,19.70
2018-07-07T09:22:28.698Z,19.90
2018-07-07T09:23:32.745Z,19.90
2018-07-07T09:24:36.898Z,19.90
2018-07-07T09:25:41.063Z,20.00
2018-07-07T09:26:45.296Z,20.00
2018-07-07T09:27:49.360Z,20.00
2018-07-07T09:28:53.542Z,20.00
2018-07-07T09:29:57.583Z,20.00
2018-07-07T09:31:01.557Z,20.10
2018-07-07T09:32:05.795Z,20.20
2018-07-07T09:33:09.849Z,20.20
2018-07-07T09:34:13.878Z,20.30
2018-07-07T09:35:17.927Z,20.40
2018-07-07T09:36:22.003Z,20.30
2018-07-07T09:37:26.556Z,20.20
2018-07-07T09:38:30.602Z,20.10
2018-07-07T09:39:34.894Z,20.10
2018-07-07T09:40:39.024Z,20.10
2018-07-07T09:41:43.139Z,20.30
2018-07-07T09:42:47.229Z,20.10
2018-07-07T09:43:51.302Z,20.10
2018-07-07T09:44:55.358Z,20.10
2018-07-07T09:45:59.427Z,20.10
2018-07-07T09:47:03.524Z,20.10
2018-07-07T09:48:07.609Z,20.00
2018-07-07T09:49:11.626Z,20.00
2018-07-07T09:50:15.688Z,20.10
2018-07-07T09:51:19.859Z,20.20
2018-07-07T09:52:23.949Z,20.30
2018-07-07T09:53:28.142Z,20.30
2018-07-07T09:54:32.244Z,20.40
2018-07-07T09:55:36.456Z,20.40
2018-07-07T09:56:40.514Z,20.60
2018-07-07T09:57:44.616Z,20.70
2018-07-07T09:58:48.647Z,20.70
2018-07-07T09:59:52.634Z,20.70
2018-07-07T10:00:56.885Z,20.70
2018-07-07T10:02:01.157Z,20.70
2018-07-07T10:03:05.201Z,20.70
2018-07-07T10:04:09.230Z,20.80
2018-07-07T10:05:13.289Z,20.70
2018-07-07T10:06:17.345Z,20.70
2018-07-07T10:08:25.287Z,20.70
2018-07-07T10:09:29.330Z,20.60
2018-07-07T10:10:33.649Z,20.70
2018-07-07T10:11:37.799Z,20.70
2018-07-07T10:12:41.945Z,20.80
2018-07-07T10:13:46.006Z,20.80
2018-07-07T10:14:50.098Z,20.90
2018-07-07T10:15:54.122Z,20.80
2018-07-07T10:16:58.295Z,20.80
2018-07-07T10:18:02.324Z,20.90
2018-07-07T10:19:06.431Z,21.00
2018-07-07T10:20:10.505Z,20.90
2018-07-07T10:21:14.590Z,21.00
2018-07-07T10:22:18.815Z,20.90
2018-07-07T10:23:22.822Z,21.00
2018-07-07T10:24:27.032Z,20.80
2018-07-07T10:25:31.067Z,20.90
2018-07-07T10:26:35.054Z,21.00
2018-07-07T10:27:39.124Z,21.00
2018-07-07T10:28:43.209Z,21.10
2018-07-07T10:29:47.403Z,21.00
2018-07-07T10:30:51.535Z,20.90
2018-07-07T10:31:55.637Z,20.90
2018-07-07T10:32:59.804Z,20.90
2018-07-07T10:34:03.938Z,20.80
2018-07-07T10:35:07.949Z,20.80
2018-07-07T10:36:11.971Z,20.80
2018-07-07T10:37:16.036Z,20.80
2018-07-07T10:38:20.116Z,20.80
2018-07-07T10:39:24.157Z,20.80
2018-07-07T10:40:28.291Z,20.80
2018-07-07T10:41:32.706Z,20.80
2018-07-07T10:42:36.837Z,20.80
2018-07-07T10:43:40.818Z,20.80
2018-07-07T10:44:44.926Z,20.80
2018-07-07T10:45:49.062Z,20.80
2018-07-07T10:46:52.969Z,20.80
2018-07-07T10:47:57.007Z,20.80
2018-07-07T10:49:01.274Z,20.80
2018-07-07T10:50:05.366Z,20.80
2018-07-07T10:51:09.390Z,20.90
2018-07-07T10:52:13.428Z,20.90
2018-07-07T10:53:17.823Z,20.80
2018-07-07T10:54:21.895Z,20.60
2018-07-07T10:55:26.052Z,20.60
2018-07-07T10:56:30.074Z,20.70
2018-07-07T10:57:34.107Z,20.90
2018-07-07T10:58:38.115Z,20.90
2018-07-07T10:59:42.312Z,21.10
2018-07-07T11:00:46.571Z,21.10
2018-07-07T11:01:50.626Z,21.10
2018-07-07T11:02:54.715Z,21.10
2018-07-07T11:03:59.053Z,21.30
2018-07-07T11:06:07.053Z,21.40
2018-07-07T11:07:11.178Z,21.50
2018-07-07T11:08:15.358Z,21.50
2018-07-07T11:09:19.578Z,21.60
2018-07-07T11:10:23.623Z,21.60
2018-07-07T11:11:27.750Z,21.60
2018-07-07T11:12:31.908Z,21.60
2018-07-07T11:13:36.094Z,21.60
2018-07-07T11:14:40.177Z,21.70
2018-07-07T11:15:44.284Z,21.70
2018-07-07T11:16:48.347Z,21.50
2018-07-07T11:17:52.559Z,21.50
2018-07-07T11:18:56.768Z,21.50
2018-07-07T11:21:04.895Z,21.50
2018-07-07T11:23:12.757Z,21.40
2018-07-07T11:24:17.224Z,21.40
2018-07-07T11:25:21.375Z,21.40
2018-07-07T11:26:25.491Z,21.40
2018-07-07T11:28:33.200Z,21.30
2018-07-07T11:29:37.287Z,21.40
2018-07-07T11:30:41.331Z,21.30
2018-07-07T11:31:45.549Z,21.20
2018-07-07T11:32:49.629Z,21.20
2018-07-07T11:33:53.722Z,21.40
2018-07-07T11:34:57.764Z,21.40
2018-07-07T11:36:01.858Z,21.50
2018-07-07T11:37:06.337Z,21.60
2018-07-07T11:38:10.402Z,21.70
2018-07-07T11:39:14.476Z,21.70
2018-07-07T11:40:18.716Z,21.70
2018-07-07T11:41:23.540Z,21.70
2018-07-07T11:42:27.601Z,21.60
2018-07-07T11:43:31.718Z,21.60
2018-07-07T11:44:35.800Z,21.50
2018-07-07T11:45:39.864Z,21.50
2018-07-07T11:46:44.188Z,21.50
2018-07-07T11:47:48.199Z,21.60
2018-07-07T11:48:52.218Z,21.70
2018-07-07T11:49:56.304Z,21.80
2018-07-07T11:51:00.327Z,21.90
2018-07-07T11:52:04.375Z,21.90
2018-07-07T11:53:08.455Z,21.90
2018-07-07T11:54:12.470Z,22.00
2018-07-07T11:55:16.550Z,21.90
2018-07-07T11:56:20.597Z,22.00
2018-07-07T11:57:24.726Z,22.00
2018-07-07T11:58:28.803Z,22.10
2018-07-07T11:59:32.824Z,22.10
2018-07-07T12:00:36.908Z,22.20
2018-07-07T12:01:41.175Z,22.20
2018-07-07T12:02:45.280Z,22.20
2018-07-07T12:03:49.328Z,22.10
2018-07-07T12:04:53.394Z,22.10
2018-07-07T12:05:57.465Z,22.10
2018-07-07T12:07:01.564Z,22.10
2018-07-07T12:08:13.874Z,22.10
2018-07-07T12:09:10.056Z,22.10
2018-07-07T12:10:14.084Z,22.10
2018-07-07T12:11:18.154Z,22.00
2018-07-07T12:12:22.179Z,22.10
2018-07-07T12:13:26.200Z,22.20
2018-07-07T12:14:30.259Z,22.20
2018-07-07T12:15:34.306Z,22.30
2018-07-07T12:16:38.329Z,22.40
2018-07-07T12:17:42.391Z,22.50
2018-07-07T12:18:46.461Z,22.50
2018-07-07T12:19:50.496Z,22.50
2018-07-07T12:20:54.590Z,22.60
2018-07-07T12:21:58.684Z,22.50
2018-07-07T12:23:02.707Z,22.40
2018-07-07T12:24:06.699Z,22.20
2018-07-07T12:25:10.736Z,22.20
2018-07-07T12:26:14.766Z,22.30
2018-07-07T12:27:19.017Z,22.30
2018-07-07T12:28:23.040Z,22.40
2018-07-07T12:29:27.147Z,22.60
2018-07-07T12:30:31.174Z,22.70
2018-07-07T12:31:35.315Z,22.90
2018-07-07T12:32:39.355Z,23.00
2018-07-07T12:33:43.415Z,23.00
2018-07-07T12:34:47.623Z,23.00
2018-07-07T12:35:51.786Z,23.20
2018-07-07T12:36:55.877Z,23.20
2018-07-07T12:37:59.965Z,23.30
2018-07-07T12:39:05.108Z,23.30
2018-07-07T12:40:09.283Z,23.30
2018-07-07T12:41:13.394Z,23.10
2018-07-07T12:42:17.468Z,22.90
2018-07-07T12:43:21.576Z,22.80
2018-07-07T12:44:25.699Z,22.70
2018-07-07T12:45:29.754Z,22.60
2018-07-07T12:46:33.864Z,22.70
2018-07-07T12:47:37.930Z,22.90
2018-07-07T12:48:42.014Z,23.00
2018-07-07T12:49:46.063Z,23.10
2018-07-07T12:50:50.091Z,23.30
2018-07-07T12:51:54.247Z,23.70
2018-07-07T12:52:58.252Z,23.90
2018-07-07T12:54:02.355Z,24.00
2018-07-07T12:55:06.841Z,24.00
2018-07-07T12:56:10.915Z,24.00
2018-07-07T12:58:18.668Z,23.90
2018-07-07T12:59:22.719Z,24.00
2018-07-07T13:00:26.954Z,23.90
2018-07-07T13:01:31.001Z,23.80
2018-07-07T13:02:35.006Z,23.60
2018-07-07T13:03:39.020Z,23.70
2018-07-07T13:04:43.187Z,23.80
2018-07-07T13:05:47.210Z,23.80
2018-07-07T13:06:51.354Z,24.00
2018-07-07T13:07:55.562Z,24.30
2018-07-07T13:08:59.667Z,24.60
2018-07-07T13:10:03.817Z,24.60
2018-07-07T13:11:07.876Z,24.50
2018-07-07T13:12:12.500Z,24.70
2018-07-07T13:13:16.544Z,24.80
2018-07-07T13:14:21.188Z,24.90
2018-07-07T13:15:25.414Z,25.10
2018-07-07T13:16:29.604Z,25.30
2018-07-07T13:17:33.660Z,25.30
2018-07-07T13:18:37.756Z,25.30
2018-07-07T13:19:41.879Z,25.00
2018-07-07T13:20:45.965Z,24.60
2018-07-07T13:21:50.037Z,24.60
2018-07-07T13:22:54.482Z,24.80
2018-07-07T13:23:58.596Z,24.90
2018-07-07T13:25:02.684Z,24.90
2018-07-07T13:26:06.839Z,25.00
2018-07-07T13:27:10.897Z,25.10
2018-07-07T13:28:14.962Z,25.20
2018-07-07T13:29:19.088Z,25.20
2018-07-07T13:30:23.144Z,25.30
2018-07-07T13:31:27.251Z,25.40
2018-07-07T13:32:31.372Z,25.50
2018-07-07T13:33:35.480Z,25.60
2018-07-07T13:34:40.262Z,25.60
2018-07-07T13:35:44.289Z,25.80
2018-07-07T13:36:48.601Z,26.20
2018-07-07T13:38:56.452Z,26.10
2018-07-07T13:40:00.502Z,26.00
2018-07-07T13:41:06.624Z,26.00
2018-07-07T13:42:11.822Z,26.10
2018-07-07T13:43:15.865Z,26.00
2018-07-07T13:44:20.064Z,25.90
2018-07-07T13:45:24.176Z,26.00
2018-07-07T13:46:28.370Z,26.40
2018-07-07T13:47:32.395Z,26.70
2018-07-07T13:48:36.645Z,26.70
2018-07-07T13:49:40.682Z,26.50
2018-07-07T13:50:44.686Z,26.40
2018-07-07T13:51:48.761Z,26.40
2018-07-07T13:52:53.017Z,26.70
2018-07-07T13:53:57.190Z,26.80
2018-07-07T13:55:01.347Z,26.60
2018-07-07T13:56:06.722Z,26.50
2018-07-07T13:57:10.910Z,26.30
2018-07-07T13:58:14.955Z,26.50
2018-07-07T13:59:18.963Z,26.60
2018-07-07T14:00:23.181Z,26.30
2018-07-07T14:01:27.238Z,26.20
2018-07-07T14:02:31.347Z,26.30
2018-07-07T14:03:35.403Z,26.50
2018-07-07T14:04:39.687Z,26.80
2018-07-07T14:05:43.875Z,27.10
2018-07-07T14:06:47.922Z,27.00
2018-07-07T14:07:52.067Z,26.30